KFSM

Fort Smith Regional Airport

Airport
ICAO code
KFSM
Summary
ICAO Region
NAM
ICAO Territory
Location

Fort Smith, Arkansas,

Elevation
469 ft
Coordinates
35° 20' 7" N , 94° 22' 4" W
KCC
Metar
Observation
KFSM 070753Z 00000KT 10SM CLR 14/09 A3019 RMK AO2 SLP219 T01440094
Station
Fort Smith, Fort Smith Regional Airport
Date/Time
2022-10-07 07:53:00
Wind direction
Wind speed
00 kts
Lowest cloud amount
n/a
Temperature
14.4°C
Dew point
9.4°C
Humidity
71%
Weather condition
n/a

Description

Joint use (civil/ANG) regional airport serving Fort Smith, Arkansas, located 3 nm southeast of the city's business district.

Climatology

Humid “subtropical” climate (Köppen climate classification Cfa) - characterized by hot, humid summers and cool winters. Significant amounts of precipitation occur in all seasons in most areas. Winter rainfall (and sometimes snowfall) is associated with large storms that the westerlies steer from west to east. Most summer rainfall occurs during thunderstorms and occasional tropical storms (hurricanes).

Airport map

Aerial View

SKYbrary Partners:

Safety knowledge contributed by: